Aviano Sentinella
| Nome | Aviano Sentinella |
|---|---|
| Predefinito | Aven Sentry |
| Tipo | Creatura — soldato uccello |
| Descrizione | Volare |
| Gusto | "Il mio stormo è fuggito da un continente lontano, flagellato da guerra e cataclismi. Benalia ci ha offerto un rifugio in cui porre fine al nostro esodo." |
| Artista | Dan Scott |
| Espansione | Booster misterioso #31 |
| Carta da parati | |
| Immagine |
Di Aviano Sentinella
Aviano Sentinella, Creatura — soldato uccello, progettato da Dan Murayama Scott rilasciato per la prima volta aprile 2018 in redazione Dominaria ed è stato stampato esattamente in 2 forme diverse. Attualmente viene venduto al prezzo più basso di € 0,31.
Un mazzo incentrato sulle strategie di aggro white weenie potrebbe beneficiare dall'includere Aven Sentry poiché fornisce una minaccia volante che può mettere pressione agli avversari. Tuttavia, ci sono opzioni probabilmente migliori come Serra Angel o Baneslayer Angel che offrono abilità e statistiche più impattanti per un costo simile, rendendo Aven Sentry meno probabile da vedere in gioco nei mazzi competitivi di Magic: the Gathering.
Dove comprare
![]() | Card Kingdom | 75 uni.
| € 0,30 | visita il negozio |
![]() | Ebay.com | visita il negozio | ||
![]() | Cardkingdom | visita il negozio | ||
![]() | Printing proxies | $ 0.75 | visita il negozio |
*Questo sito contiene link di affiliazione per i quali potremmo ricevere un compenso
Gruppo
avviso di prezzo ?
Avvisami quando arriva il prezzo
Storico dell'andamento dei prezzi

Storico dei prezzi
| Data | Prezzo minimo | Prezzo medio | Decks |
|---|---|---|---|
| 2024-09-06 | 0.05 EUR | 0.17 EUR | 0 |
| 2024-09-09 | 0.04 EUR | 0.16 EUR | 0 |
| 2024-09-16 | 0.04 EUR | 0.16 EUR | 0 |
| 2024-09-23 | 0.03 EUR | 0.15 EUR | 0 |
| 2024-09-30 | 0.02 EUR | 0.15 EUR | 0 |
| 2024-10-07 | 0.03 EUR | 0.16 EUR | 0 |
| 2024-10-14 | 0.04 EUR | 0.16 EUR | 0 |
| 2024-10-21 | 0.03 EUR | 0.16 EUR | 0 |
| 2024-10-28 | 0.02 EUR | 0.16 EUR | 0 |
| 2024-11-06 | 0.02 EUR | 0.16 EUR | 0 |
| 2024-11-11 | 0.02 EUR | 0.16 EUR | 0 |
| 2024-11-18 | 0.02 EUR | 0.16 EUR | 0 |
| 2024-11-25 | 0.02 EUR | 0.16 EUR | 0 |
| 2024-12-02 | 0.02 EUR | 0.16 EUR | 0 |
| 2024-12-09 | 0.03 EUR | 0.17 EUR | 0 |
| 2024-12-19 | 0.03 EUR | 0.17 EUR | 0 |
| 2024-12-23 | 0.03 EUR | 0.17 EUR | 0 |
| 2024-12-30 | 0.03 EUR | 0.17 EUR | 0 |
| 2025-01-01 | 0.03 EUR | 0.17 EUR | 0 |
| 2025-01-06 | 0.03 EUR | 0.17 EUR | 0 |
| 2025-01-13 | 0.03 EUR | 0.17 EUR | 0 |
| 2025-01-20 | 0.03 EUR | 0.17 EUR | 0 |
| 2025-01-27 | 0.03 EUR | 0.17 EUR | 0 |
| 2025-02-03 | 0.03 EUR | 0.17 EUR | 0 |
| 2025-02-10 | 0.03 EUR | 0.17 EUR | 0 |
| 2025-02-18 | 0.02 EUR | 0.18 EUR | 0 |
| 2025-04-27 | 0.01 EUR | 0.18 EUR | 0 |
| 2025-04-28 | 0.01 EUR | 0.18 EUR | 0 |
| 2025-05-06 | 0.01 EUR | 0.18 EUR | 0 |
| 2025-05-12 | 0.01 EUR | 0.18 EUR | 0 |
| 2025-05-19 | 0.01 EUR | 0.19 EUR | 0 |
| 2025-05-28 | 0.01 EUR | 0.20 EUR | 1 |
| 2025-06-03 | 0.01 EUR | 0.18 EUR | 0 |
| 2025-06-10 | 0.01 EUR | 0.17 EUR | 0 |
| 2025-06-17 | 0.01 EUR | 0.17 EUR | 0 |
| 2025-06-23 | 0.01 EUR | 0.22 EUR | 0 |
| 2025-07-01 | 0.02 EUR | 0.17 EUR | 0 |
| 2025-07-08 | 0.02 EUR | 0.17 EUR | 0 |
| 2025-07-15 | 0.02 EUR | 0.18 EUR | 0 |
| 2025-07-22 | 0.02 EUR | 0.18 EUR | 0 |
| 2025-07-29 | 0.02 EUR | 0.21 EUR | 0 |
| 2025-08-05 | 0.02 EUR | 0.22 EUR | 0 |
| 2025-08-12 | 0.02 EUR | 0.17 EUR | 0 |
| 2025-08-18 | 0.01 EUR | 0.18 EUR | 0 |
| 2025-08-25 | 0.01 EUR | 0.22 EUR | 0 |
| 2025-09-02 | 0.01 EUR | 0.22 EUR | 0 |
| 2025-09-09 | 0.01 EUR | 0.22 EUR | 0 |
| 2025-09-15 | 0.01 EUR | 0.22 EUR | 0 |
| 2025-09-23 | 0.26 EUR | 0.30 EUR | 0 |
| 2025-09-29 | 0.31 EUR | 0.32 EUR | 0 |
| 2025-10-06 | 0.32 EUR | 0.32 EUR | 0 |
| 2025-10-13 | 0.32 EUR | 0.32 EUR | 0 |
| 2025-10-20 | 0.32 EUR | 0.32 EUR | 0 |
| 2025-10-27 | 0.32 EUR | 0.32 EUR | 0 |
| 2025-11-03 | 0.32 EUR | 0.32 EUR | 0 |
| 2025-11-10 | 0.31 EUR | 0.31 EUR | 0 |
| 2025-11-18 | 0.31 EUR | 0.31 EUR | 0 |
| 2025-11-24 | 0.32 EUR | 0.32 EUR | 0 |
| 2025-12-03 | 0.31 EUR | 0.31 EUR | 0 |
| 2025-12-08 | 0.32 EUR | 0.32 EUR | 0 |
| 2025-12-15 | 0.32 EUR | 0.32 EUR | 0 |
| 2025-12-22 | 0.33 EUR | 0.33 EUR | 0 |
| 2025-12-29 | 0.33 EUR | 0.33 EUR | 0 |
| 2026-01-01 | 0.32 EUR | 0.32 EUR | 0 |
| 2026-01-05 | 0.32 EUR | 0.32 EUR | 0 |
| 2026-01-13 | 0.32 EUR | 0.32 EUR | 0 |
| 2026-01-20 | 0.31 EUR | 0.31 EUR | 0 |
| 2026-01-26 | 0.31 EUR | 0.31 EUR | 0 |
| 2026-02-02 | 0.31 EUR | 0.31 EUR | 0 |
| 2026-02-09 | 0.31 EUR | 0.31 EUR | 0 |
| 2026-02-16 | 0.31 EUR | 0.31 EUR | 0 |
| 2026-02-23 | 0.31 EUR | 0.31 EUR | 0 |
| 2026-03-02 | 0.31 EUR | 0.31 EUR | 0 |
| 2026-03-10 | 0.31 EUR | 0.31 EUR | 0 |
| 2026-03-16 | 0.31 EUR | 0.31 EUR | 0 |
| 2026-04-02 | 0.31 EUR | 0.31 EUR | 0 |
| 2026-04-07 | 0.30 EUR | 0.30 EUR | 0 |
| 2026-04-14 | 0.30 EUR | 0.30 EUR | 0 |
| 2026-04-23 | 0.29 EUR | 0.29 EUR | 0 |
| 2026-04-30 | 0.29 EUR | 0.29 EUR | 0 |
| 2026-05-05 | 0.29 EUR | 0.29 EUR | 0 |
| 2026-05-14 | 0.29 EUR | 0.29 EUR | 0 |
| 2026-05-20 | 0.30 EUR | 0.30 EUR | 0 |
| 2026-05-25 | 0.30 EUR | 0.30 EUR | 0 |
| 2026-06-01 | 0.30 EUR | 0.30 EUR | 0 |
| 2026-06-08 | 0.31 EUR | 0.31 EUR | 0 |
| 2026-06-15 | 0.30 EUR | 0.30 EUR | 0 |
| 2026-06-23 | 0.30 EUR | 0.30 EUR | 0 |
| 2026-06-29 | 0.31 EUR | 0.31 EUR | 0 |
| 2026-07-06 | 0.30 EUR | 0.30 EUR | 0 |
| 2026-07-13 | 0.30 EUR | 0.30 EUR | 0 |
| 2026-07-20 | 0.30 EUR | 0.30 EUR | 0 |
| 2026-07-27 | 0.30 EUR | 0.30 EUR | 0 |
| 2026-08-03 | 0.30 EUR | 0.30 EUR | 0 |
| 2026-08-10 | 0.30 EUR | 0.30 EUR | 0 |
| 2026-08-17 | 0.31 EUR | 0.31 EUR | 0 |
| 2026-08-24 | 0.30 EUR | 0.30 EUR | 0 |
| 2026-09-01 | 0.30 EUR | 0.30 EUR | 0 |
Domande frequenti su Aviano Sentinella
Che tipo di carta è Aviano Sentinella?
Aviano Sentinella è Creatura — soldato uccello carta inserita Magic: the Gathering MTG.
Qual è l'effetto della carta Aviano Sentinella?
Volare
Qual è il prezzo della carta Aviano Sentinella?
Aviano Sentinella attualmente inizia alle € 0,31. Visualizza i prezzi in tempo reale di più venditori nella sezione Dove acquistare sopra.
Qual è il set originale della carta Aviano Sentinella?
Aviano Sentinella è stato rilasciato per la prima volta nel set Dominaria, illustrato da Dan Murayama Scott.
Qual è la legalità della carta Aviano Sentinella?
La legalità dipende dal formato del torneo: Aviano Sentinella può essere legale in alcuni formati e vietato o limitato in altri. Consulta la ripartizione completa per formato nella sezione Legalità sopra.
Quali carte sono simili a Aviano Sentinella?
Carte simili a Aviano Sentinella includere Roc delle Creste di Kher, Grifone Maculato, Drago del deserto. Consulta l'elenco completo nella sezione Carte simili sopra.





Reazioni
0
0 Commenti
Diventa il primo a commentare